CheckWX is a tool to help pilots better visualize weather data.  It is not intended as a substitute for an official pre-flight weather briefing.

20:54:39 UTC

KCDW METAR
Essex County Airport
Caldwell, New Jersey, USA
Current

1 hour ago

KCDW 201953Z 33009G17KT 10SM OVC075 09/M02 A2998 RMK AO2 SLP157 T00891022
Observed
Nov-20 @ 19:53 UTC
Wind
  • 330° at 9 KTS
  • Gusting to 17 KTS
Visibility
10 SM
Flight Rules
VFR
Cloud Levels
  • Overcast at 7,500' AGL
Temperature
C / 48°F
Dewpoint
-2°C / 28°F
Humidity
46%
Altimeter
29.98" Hg
Pressure
1015.22 hPa
Previous

2 hours ago

KCDW 201853Z 33009G20KT 300V360 10SM CLR 10/M04 A2996 RMK AO2 SLP153 T01001039
Observed
Nov-20 @ 18:53 UTC
Wind
  • 330° at 9 KTS
  • Gusting to 20 KTS
Visibility
10 SM
Flight Rules
VFR
Cloud Levels
  • Clear skies
Temperature
10°C / 50°F
Dewpoint
-4°C / 25°F
Humidity
37%
Altimeter
29.96" Hg
Pressure
1014.52 hPa
Previous

3 hours ago

KCDW 201753Z 34008KT 310V040 10SM FEW047 09/M04 A2996 RMK AO2 SLP150 T00941044 10094 20044 58004
Observed
Nov-20 @ 17:53 UTC
Wind
  • 340° at 8 KTS
Visibility
10 SM
Flight Rules
VFR
Cloud Levels
  • Few at 4,700' AGL
Temperature
C / 48°F
Dewpoint
-4°C / 25°F
Humidity
40%
Altimeter
29.96" Hg
Pressure
1014.52 hPa